sensor_id;sensor_type;location;lat;lon;timestamp;P1;durP1;ratioP1;P2;durP2;ratioP2
41921;SDS011;27609;51.002;5.354;2023-06-22T00:00:52;17.80;;;7.20;;
41921;SDS011;27609;51.002;5.354;2023-06-22T00:03:18;12.43;;;6.05;;
41921;SDS011;27609;51.002;5.354;2023-06-22T00:05:45;6.20;;;4.97;;
41921;SDS011;27609;51.002;5.354;2023-06-22T00:08:11;6.93;;;5.53;;
41921;SDS011;27609;51.002;5.354;2023-06-22T00:10:37;9.75;;;5.78;;
41921;SDS011;27609;51.002;5.354;2023-06-22T00:13:03;7.32;;;5.38;;
41921;SDS011;27609;51.002;5.354;2023-06-22T00:15:30;7.18;;;5.55;;
41921;SDS011;27609;51.002;5.354;2023-06-22T00:17:55;12.10;;;5.68;;
41921;SDS011;27609;51.002;5.354;2023-06-22T00:20:22;8.80;;;5.57;;
41921;SDS011;27609;51.002;5.354;2023-06-22T00:22:52;7.85;;;5.15;;
41921;SDS011;27609;51.002;5.354;2023-06-22T00:25:19;6.32;;;5.15;;
41921;SDS011;27609;51.002;5.354;2023-06-22T00:27:44;6.63;;;4.82;;
41921;SDS011;27609;51.002;5.354;2023-06-22T00:30:10;6.10;;;5.03;;
41921;SDS011;27609;51.002;5.354;2023-06-22T00:32:36;4.78;;;4.22;;
41921;SDS011;27609;51.002;5.354;2023-06-22T00:35:01;5.38;;;4.88;;
41921;SDS011;27609;51.002;5.354;2023-06-22T00:37:27;8.35;;;5.75;;
41921;SDS011;27609;51.002;5.354;2023-06-22T00:39:54;8.02;;;4.90;;
41921;SDS011;27609;51.002;5.354;2023-06-22T00:42:20;7.75;;;4.97;;
41921;SDS011;27609;51.002;5.354;2023-06-22T00:44:46;22.65;;;4.75;;
41921;SDS011;27609;51.002;5.354;2023-06-22T00:47:15;6.72;;;5.00;;
41921;SDS011;27609;51.002;5.354;2023-06-22T00:49:43;7.97;;;5.13;;
41921;SDS011;27609;51.002;5.354;2023-06-22T00:52:10;6.65;;;4.95;;
41921;SDS011;27609;51.002;5.354;2023-06-22T00:54:41;10.53;;;5.37;;
41921;SDS011;27609;51.002;5.354;2023-06-22T00:57:11;7.00;;;4.85;;
41921;SDS011;27609;51.002;5.354;2023-06-22T00:59:42;6.57;;;5.65;;
41921;SDS011;27609;51.002;5.354;2023-06-22T01:02:08;9.35;;;5.75;;
41921;SDS011;27609;51.002;5.354;2023-06-22T01:04:35;6.72;;;5.80;;
41921;SDS011;27609;51.002;5.354;2023-06-22T01:07:15;7.40;;;5.15;;
41921;SDS011;27609;51.002;5.354;2023-06-22T01:12:33;8.68;;;5.93;;
41921;SDS011;27609;51.002;5.354;2023-06-22T01:15:08;7.82;;;5.90;;
41921;SDS011;27609;51.002;5.354;2023-06-22T01:17:40;10.60;;;5.03;;
41921;SDS011;27609;51.002;5.354;2023-06-22T01:20:08;7.32;;;5.55;;
41921;SDS011;27609;51.002;5.354;2023-06-22T01:22:50;12.80;;;6.43;;
41921;SDS011;27609;51.002;5.354;2023-06-22T01:25:33;10.00;;;5.78;;
41921;SDS011;27609;51.002;5.354;2023-06-22T01:28:34;7.60;;;5.43;;
41921;SDS011;27609;51.002;5.354;2023-06-22T01:30:56;13.93;;;5.72;;
41921;SDS011;27609;51.002;5.354;2023-06-22T01:33:33;8.50;;;6.00;;
41921;SDS011;27609;51.002;5.354;2023-06-22T01:36:02;7.55;;;6.00;;
41921;SDS011;27609;51.002;5.354;2023-06-22T01:38:29;7.90;;;5.85;;
41921;SDS011;27609;51.002;5.354;2023-06-22T01:40:57;11.63;;;6.00;;
41921;SDS011;27609;51.002;5.354;2023-06-22T01:43:24;7.55;;;6.30;;
41921;SDS011;27609;51.002;5.354;2023-06-22T01:45:51;7.22;;;5.93;;
41921;SDS011;27609;51.002;5.354;2023-06-22T01:48:19;11.32;;;7.03;;
41921;SDS011;27609;51.002;5.354;2023-06-22T01:50:45;10.27;;;7.63;;
41921;SDS011;27609;51.002;5.354;2023-06-22T01:53:11;9.98;;;7.00;;
41921;SDS011;27609;51.002;5.354;2023-06-22T01:55:37;9.18;;;7.55;;
41921;SDS011;27609;51.002;5.354;2023-06-22T01:58:03;9.60;;;7.68;;
41921;SDS011;27609;51.002;5.354;2023-06-22T02:00:29;9.77;;;7.80;;
41921;SDS011;27609;51.002;5.354;2023-06-22T02:05:25;11.38;;;8.82;;
41921;SDS011;27609;51.002;5.354;2023-06-22T02:07:57;11.60;;;9.18;;
41921;SDS011;27609;51.002;5.354;2023-06-22T02:10:29;15.23;;;10.38;;
41921;SDS011;27609;51.002;5.354;2023-06-22T02:12:57;16.63;;;10.35;;
41921;SDS011;27609;51.002;5.354;2023-06-22T02:15:25;13.85;;;10.05;;
41921;SDS011;27609;51.002;5.354;2023-06-22T02:17:51;13.27;;;9.35;;
41921;SDS011;27609;51.002;5.354;2023-06-22T02:20:17;12.25;;;10.18;;
41921;SDS011;27609;51.002;5.354;2023-06-22T02:22:43;13.88;;;10.68;;
41921;SDS011;27609;51.002;5.354;2023-06-22T02:25:08;13.32;;;10.50;;
41921;SDS011;27609;51.002;5.354;2023-06-22T02:27:34;17.52;;;12.10;;
41921;SDS011;27609;51.002;5.354;2023-06-22T02:30:00;15.55;;;12.63;;
41921;SDS011;27609;51.002;5.354;2023-06-22T02:32:26;18.30;;;12.82;;
41921;SDS011;27609;51.002;5.354;2023-06-22T02:34:52;17.50;;;13.15;;
41921;SDS011;27609;51.002;5.354;2023-06-22T02:37:18;17.27;;;13.10;;
41921;SDS011;27609;51.002;5.354;2023-06-22T02:39:43;17.45;;;13.55;;
41921;SDS011;27609;51.002;5.354;2023-06-22T02:42:09;19.15;;;13.95;;
41921;SDS011;27609;51.002;5.354;2023-06-22T02:44:38;17.15;;;13.40;;
41921;SDS011;27609;51.002;5.354;2023-06-22T02:47:03;18.23;;;13.82;;
41921;SDS011;27609;51.002;5.354;2023-06-22T02:49:29;18.55;;;13.73;;
41921;SDS011;27609;51.002;5.354;2023-06-22T02:51:55;18.33;;;14.85;;
41921;SDS011;27609;51.002;5.354;2023-06-22T02:54:22;17.17;;;13.82;;
41921;SDS011;27609;51.002;5.354;2023-06-22T02:56:47;17.48;;;14.23;;
41921;SDS011;27609;51.002;5.354;2023-06-22T02:59:13;17.48;;;14.27;;
41921;SDS011;27609;51.002;5.354;2023-06-22T03:01:39;18.90;;;15.43;;
41921;SDS011;27609;51.002;5.354;2023-06-22T03:04:08;24.67;;;14.80;;
41921;SDS011;27609;51.002;5.354;2023-06-22T03:06:34;26.77;;;15.70;;
41921;SDS011;27609;51.002;5.354;2023-06-22T03:09:01;19.45;;;16.13;;
41921;SDS011;27609;51.002;5.354;2023-06-22T03:11:29;20.90;;;15.68;;
41921;SDS011;27609;51.002;5.354;2023-06-22T03:13:56;19.23;;;15.52;;
41921;SDS011;27609;51.002;5.354;2023-06-22T03:16:21;20.02;;;16.83;;
41921;SDS011;27609;51.002;5.354;2023-06-22T03:18:47;21.05;;;15.82;;
41921;SDS011;27609;51.002;5.354;2023-06-22T03:21:13;22.17;;;15.82;;
41921;SDS011;27609;51.002;5.354;2023-06-22T03:23:40;25.25;;;17.25;;
41921;SDS011;27609;51.002;5.354;2023-06-22T03:26:06;22.70;;;16.00;;
41921;SDS011;27609;51.002;5.354;2023-06-22T03:28:32;18.33;;;15.55;;
41921;SDS011;27609;51.002;5.354;2023-06-22T03:30:58;20.13;;;15.90;;
41921;SDS011;27609;51.002;5.354;2023-06-22T03:33:25;22.90;;;17.60;;
41921;SDS011;27609;51.002;5.354;2023-06-22T03:35:50;21.88;;;17.05;;
41921;SDS011;27609;51.002;5.354;2023-06-22T03:38:16;26.02;;;16.05;;
41921;SDS011;27609;51.002;5.354;2023-06-22T03:40:42;26.25;;;16.73;;
41921;SDS011;27609;51.002;5.354;2023-06-22T03:43:08;20.77;;;15.65;;
41921;SDS011;27609;51.002;5.354;2023-06-22T03:45:34;20.35;;;16.63;;
41921;SDS011;27609;51.002;5.354;2023-06-22T03:48:00;24.83;;;16.67;;
41921;SDS011;27609;51.002;5.354;2023-06-22T03:50:26;19.48;;;16.42;;
41921;SDS011;27609;51.002;5.354;2023-06-22T03:52:52;21.95;;;16.10;;
41921;SDS011;27609;51.002;5.354;2023-06-22T03:55:19;21.75;;;18.20;;
41921;SDS011;27609;51.002;5.354;2023-06-22T03:57:45;19.10;;;16.15;;
41921;SDS011;27609;51.002;5.354;2023-06-22T04:00:11;18.38;;;16.23;;
41921;SDS011;27609;51.002;5.354;2023-06-22T04:02:37;24.52;;;18.20;;
41921;SDS011;27609;51.002;5.354;2023-06-22T04:05:03;21.70;;;17.65;;
41921;SDS011;27609;51.002;5.354;2023-06-22T04:07:29;22.10;;;16.55;;
41921;SDS011;27609;51.002;5.354;2023-06-22T04:09:54;26.30;;;18.25;;
41921;SDS011;27609;51.002;5.354;2023-06-22T04:12:20;21.23;;;17.45;;
41921;SDS011;27609;51.002;5.354;2023-06-22T04:14:46;19.73;;;16.38;;
41921;SDS011;27609;51.002;5.354;2023-06-22T04:17:11;22.52;;;16.45;;
41921;SDS011;27609;51.002;5.354;2023-06-22T04:19:39;21.05;;;17.48;;
41921;SDS011;27609;51.002;5.354;2023-06-22T04:22:05;22.05;;;18.10;;
41921;SDS011;27609;51.002;5.354;2023-06-22T04:24:32;20.65;;;17.73;;
41921;SDS011;27609;51.002;5.354;2023-06-22T04:26:58;24.20;;;17.95;;
41921;SDS011;27609;51.002;5.354;2023-06-22T04:29:27;22.10;;;17.98;;
41921;SDS011;27609;51.002;5.354;2023-06-22T04:31:56;24.65;;;18.38;;
41921;SDS011;27609;51.002;5.354;2023-06-22T04:34:24;23.58;;;17.58;;
41921;SDS011;27609;51.002;5.354;2023-06-22T04:36:53;25.83;;;17.73;;
41921;SDS011;27609;51.002;5.354;2023-06-22T04:39:18;20.45;;;16.70;;
41921;SDS011;27609;51.002;5.354;2023-06-22T04:41:44;22.80;;;16.88;;
41921;SDS011;27609;51.002;5.354;2023-06-22T04:44:11;23.73;;;16.95;;
41921;SDS011;27609;51.002;5.354;2023-06-22T04:46:37;20.02;;;17.35;;
41921;SDS011;27609;51.002;5.354;2023-06-22T04:49:06;26.70;;;18.27;;
41921;SDS011;27609;51.002;5.354;2023-06-22T04:51:34;24.60;;;18.63;;
41921;SDS011;27609;51.002;5.354;2023-06-22T04:54:09;25.17;;;17.58;;
41921;SDS011;27609;51.002;5.354;2023-06-22T04:56:35;21.58;;;17.92;;
41921;SDS011;27609;51.002;5.354;2023-06-22T04:59:01;21.08;;;17.58;;
41921;SDS011;27609;51.002;5.354;2023-06-22T05:01:28;20.25;;;17.63;;
41921;SDS011;27609;51.002;5.354;2023-06-22T05:03:56;19.33;;;15.85;;
41921;SDS011;27609;51.002;5.354;2023-06-22T05:06:22;26.30;;;17.05;;
41921;SDS011;27609;51.002;5.354;2023-06-22T05:08:55;23.77;;;18.83;;
41921;SDS011;27609;51.002;5.354;2023-06-22T05:11:25;23.45;;;17.58;;
41921;SDS011;27609;51.002;5.354;2023-06-22T05:13:53;25.70;;;19.67;;
41921;SDS011;27609;51.002;5.354;2023-06-22T05:16:20;24.88;;;19.80;;
41921;SDS011;27609;51.002;5.354;2023-06-22T05:18:52;28.00;;;22.85;;
41921;SDS011;27609;51.002;5.354;2023-06-22T05:21:23;32.22;;;22.98;;
41921;SDS011;27609;51.002;5.354;2023-06-22T05:23:49;28.20;;;21.63;;
41921;SDS011;27609;51.002;5.354;2023-06-22T05:26:15;26.35;;;22.60;;
41921;SDS011;27609;51.002;5.354;2023-06-22T05:28:41;33.15;;;23.33;;
41921;SDS011;27609;51.002;5.354;2023-06-22T05:31:11;33.37;;;23.03;;
41921;SDS011;27609;51.002;5.354;2023-06-22T05:33:40;35.03;;;23.90;;
41921;SDS011;27609;51.002;5.354;2023-06-22T05:36:07;28.75;;;24.20;;
41921;SDS011;27609;51.002;5.354;2023-06-22T05:38:33;31.75;;;24.25;;
41921;SDS011;27609;51.002;5.354;2023-06-22T05:40:59;30.65;;;24.08;;
41921;SDS011;27609;51.002;5.354;2023-06-22T05:43:24;34.60;;;25.42;;
41921;SDS011;27609;51.002;5.354;2023-06-22T05:45:50;34.17;;;25.67;;
41921;SDS011;27609;51.002;5.354;2023-06-22T05:48:16;35.90;;;26.67;;
41921;SDS011;27609;51.002;5.354;2023-06-22T05:50:42;38.28;;;27.17;;
41921;SDS011;27609;51.002;5.354;2023-06-22T05:53:07;37.25;;;26.05;;
41921;SDS011;27609;51.002;5.354;2023-06-22T05:55:33;29.83;;;23.80;;
41921;SDS011;27609;51.002;5.354;2023-06-22T05:57:59;31.38;;;25.17;;
41921;SDS011;27609;51.002;5.354;2023-06-22T06:00:25;34.33;;;25.70;;
41921;SDS011;27609;51.002;5.354;2023-06-22T06:02:50;36.63;;;25.30;;
41921;SDS011;27609;51.002;5.354;2023-06-22T06:05:16;33.75;;;24.27;;
41921;SDS011;27609;51.002;5.354;2023-06-22T06:07:42;36.30;;;25.23;;
41921;SDS011;27609;51.002;5.354;2023-06-22T06:10:08;32.47;;;23.63;;
41921;SDS011;27609;51.002;5.354;2023-06-22T06:12:34;40.10;;;25.00;;
41921;SDS011;27609;51.002;5.354;2023-06-22T06:15:01;27.70;;;23.40;;
41921;SDS011;27609;51.002;5.354;2023-06-22T06:17:27;30.92;;;23.15;;
41921;SDS011;27609;51.002;5.354;2023-06-22T06:19:52;31.23;;;24.15;;
41921;SDS011;27609;51.002;5.354;2023-06-22T06:22:18;34.75;;;24.75;;
41921;SDS011;27609;51.002;5.354;2023-06-22T06:24:45;35.42;;;24.95;;
41921;SDS011;27609;51.002;5.354;2023-06-22T06:27:12;33.90;;;25.50;;
41921;SDS011;27609;51.002;5.354;2023-06-22T06:29:38;36.17;;;26.77;;
41921;SDS011;27609;51.002;5.354;2023-06-22T06:32:04;29.48;;;23.92;;
41921;SDS011;27609;51.002;5.354;2023-06-22T06:34:30;25.38;;;22.45;;
41921;SDS011;27609;51.002;5.354;2023-06-22T06:36:56;31.20;;;23.50;;
41921;SDS011;27609;51.002;5.354;2023-06-22T06:39:21;34.88;;;25.42;;
41921;SDS011;27609;51.002;5.354;2023-06-22T06:41:47;37.50;;;24.58;;
41921;SDS011;27609;51.002;5.354;2023-06-22T06:44:13;32.58;;;24.08;;
41921;SDS011;27609;51.002;5.354;2023-06-22T06:46:38;36.97;;;24.33;;
41921;SDS011;27609;51.002;5.354;2023-06-22T06:49:04;37.22;;;24.30;;
41921;SDS011;27609;51.002;5.354;2023-06-22T06:51:30;36.03;;;25.63;;
41921;SDS011;27609;51.002;5.354;2023-06-22T06:53:55;38.90;;;24.40;;
41921;SDS011;27609;51.002;5.354;2023-06-22T06:56:21;31.90;;;23.15;;
41921;SDS011;27609;51.002;5.354;2023-06-22T06:58:49;36.35;;;22.40;;
41921;SDS011;27609;51.002;5.354;2023-06-22T07:01:15;34.60;;;22.83;;
41921;SDS011;27609;51.002;5.354;2023-06-22T07:03:41;38.80;;;22.67;;
41921;SDS011;27609;51.002;5.354;2023-06-22T07:06:08;28.70;;;21.02;;
41921;SDS011;27609;51.002;5.354;2023-06-22T07:08:34;37.35;;;23.40;;
41921;SDS011;27609;51.002;5.354;2023-06-22T07:11:01;34.17;;;21.35;;
41921;SDS011;27609;51.002;5.354;2023-06-22T07:13:27;38.97;;;21.58;;
41921;SDS011;27609;51.002;5.354;2023-06-22T07:15:52;31.98;;;21.48;;
41921;SDS011;27609;51.002;5.354;2023-06-22T07:18:18;37.65;;;22.20;;
41921;SDS011;27609;51.002;5.354;2023-06-22T07:20:44;40.75;;;22.08;;
41921;SDS011;27609;51.002;5.354;2023-06-22T07:23:09;31.30;;;20.98;;
41921;SDS011;27609;51.002;5.354;2023-06-22T07:25:35;32.00;;;21.58;;
41921;SDS011;27609;51.002;5.354;2023-06-22T07:28:04;33.45;;;22.45;;
41921;SDS011;27609;51.002;5.354;2023-06-22T07:30:31;30.33;;;20.55;;
41921;SDS011;27609;51.002;5.354;2023-06-22T07:32:58;27.58;;;20.98;;
41921;SDS011;27609;51.002;5.354;2023-06-22T07:35:28;30.88;;;20.00;;
41921;SDS011;27609;51.002;5.354;2023-06-22T07:37:54;26.15;;;19.33;;
41921;SDS011;27609;51.002;5.354;2023-06-22T07:40:20;27.35;;;19.27;;
41921;SDS011;27609;51.002;5.354;2023-06-22T07:42:45;26.08;;;20.42;;
41921;SDS011;27609;51.002;5.354;2023-06-22T07:45:13;29.55;;;19.65;;
41921;SDS011;27609;51.002;5.354;2023-06-22T07:47:39;29.73;;;20.40;;
41921;SDS011;27609;51.002;5.354;2023-06-22T07:50:05;26.20;;;21.15;;
41921;SDS011;27609;51.002;5.354;2023-06-22T07:52:31;27.27;;;21.20;;
41921;SDS011;27609;51.002;5.354;2023-06-22T07:54:57;26.85;;;20.90;;
41921;SDS011;27609;51.002;5.354;2023-06-22T07:57:23;26.63;;;21.13;;
41921;SDS011;27609;51.002;5.354;2023-06-22T07:59:56;26.42;;;21.45;;
41921;SDS011;27609;51.002;5.354;2023-06-22T08:02:23;24.65;;;21.02;;
41921;SDS011;27609;51.002;5.354;2023-06-22T08:04:49;24.58;;;21.98;;
41921;SDS011;27609;51.002;5.354;2023-06-22T08:07:14;26.38;;;21.27;;
41921;SDS011;27609;51.002;5.354;2023-06-22T08:09:45;23.63;;;20.25;;
41921;SDS011;27609;51.002;5.354;2023-06-22T08:12:12;23.38;;;20.90;;
41921;SDS011;27609;51.002;5.354;2023-06-22T08:14:38;21.45;;;19.08;;
41921;SDS011;27609;51.002;5.354;2023-06-22T08:17:04;24.30;;;18.75;;
41921;SDS011;27609;51.002;5.354;2023-06-22T08:19:30;22.23;;;19.83;;
41921;SDS011;27609;51.002;5.354;2023-06-22T08:21:55;22.60;;;18.60;;
41921;SDS011;27609;51.002;5.354;2023-06-22T08:24:22;21.92;;;18.80;;
41921;SDS011;27609;51.002;5.354;2023-06-22T08:26:49;27.33;;;20.10;;
41921;SDS011;27609;51.002;5.354;2023-06-22T08:29:16;25.02;;;18.60;;
41921;SDS011;27609;51.002;5.354;2023-06-22T08:31:42;23.00;;;19.27;;
41921;SDS011;27609;51.002;5.354;2023-06-22T08:34:08;24.83;;;19.77;;
41921;SDS011;27609;51.002;5.354;2023-06-22T08:36:33;20.40;;;18.30;;
41921;SDS011;27609;51.002;5.354;2023-06-22T08:39:06;20.83;;;18.48;;
41921;SDS011;27609;51.002;5.354;2023-06-22T08:41:33;22.20;;;19.48;;
41921;SDS011;27609;51.002;5.354;2023-06-22T08:43:59;22.50;;;19.38;;
41921;SDS011;27609;51.002;5.354;2023-06-22T08:46:24;22.13;;;18.42;;
41921;SDS011;27609;51.002;5.354;2023-06-22T08:48:55;20.42;;;18.13;;
41921;SDS011;27609;51.002;5.354;2023-06-22T08:51:22;20.38;;;18.15;;
41921;SDS011;27609;51.002;5.354;2023-06-22T08:53:47;20.48;;;18.20;;
41921;SDS011;27609;51.002;5.354;2023-06-22T08:56:13;22.92;;;19.83;;
41921;SDS011;27609;51.002;5.354;2023-06-22T08:58:39;22.23;;;19.73;;
41921;SDS011;27609;51.002;5.354;2023-06-22T09:01:04;19.85;;;17.75;;
41921;SDS011;27609;51.002;5.354;2023-06-22T09:03:30;22.63;;;19.70;;
41921;SDS011;27609;51.002;5.354;2023-06-22T09:05:57;22.10;;;19.83;;
41921;SDS011;27609;51.002;5.354;2023-06-22T09:08:23;22.27;;;18.70;;
41921;SDS011;27609;51.002;5.354;2023-06-22T09:10:49;24.27;;;19.90;;
41921;SDS011;27609;51.002;5.354;2023-06-22T09:13:15;25.65;;;21.08;;
41921;SDS011;27609;51.002;5.354;2023-06-22T09:15:41;23.55;;;20.27;;
41921;SDS011;27609;51.002;5.354;2023-06-22T09:18:06;30.23;;;19.58;;
41921;SDS011;27609;51.002;5.354;2023-06-22T09:20:36;22.52;;;20.13;;
41921;SDS011;27609;51.002;5.354;2023-06-22T09:23:01;24.52;;;19.85;;
41921;SDS011;27609;51.002;5.354;2023-06-22T09:25:27;24.83;;;19.77;;
41921;SDS011;27609;51.002;5.354;2023-06-22T09:27:53;27.33;;;20.90;;
41921;SDS011;27609;51.002;5.354;2023-06-22T09:30:19;24.42;;;19.80;;
41921;SDS011;27609;51.002;5.354;2023-06-22T09:32:44;25.58;;;20.33;;
41921;SDS011;27609;51.002;5.354;2023-06-22T09:35:10;26.67;;;22.48;;
41921;SDS011;27609;51.002;5.354;2023-06-22T09:37:37;29.80;;;20.45;;
41921;SDS011;27609;51.002;5.354;2023-06-22T09:40:03;23.63;;;21.23;;
41921;SDS011;27609;51.002;5.354;2023-06-22T09:42:33;29.13;;;21.30;;
41921;SDS011;27609;51.002;5.354;2023-06-22T09:44:59;25.40;;;20.48;;
41921;SDS011;27609;51.002;5.354;2023-06-22T09:47:26;23.13;;;20.27;;
41921;SDS011;27609;51.002;5.354;2023-06-22T09:49:53;27.73;;;22.85;;
41921;SDS011;27609;51.002;5.354;2023-06-22T09:52:20;24.38;;;21.77;;
41921;SDS011;27609;51.002;5.354;2023-06-22T09:54:46;24.90;;;20.73;;
41921;SDS011;27609;51.002;5.354;2023-06-22T09:57:12;26.35;;;22.17;;
41921;SDS011;27609;51.002;5.354;2023-06-22T09:59:38;27.65;;;22.73;;
41921;SDS011;27609;51.002;5.354;2023-06-22T10:02:05;26.50;;;22.48;;
41921;SDS011;27609;51.002;5.354;2023-06-22T10:04:32;32.65;;;23.25;;
41921;SDS011;27609;51.002;5.354;2023-06-22T10:06:58;29.55;;;24.52;;
41921;SDS011;27609;51.002;5.354;2023-06-22T10:09:24;29.92;;;23.75;;
41921;SDS011;27609;51.002;5.354;2023-06-22T10:11:49;26.92;;;23.98;;
41921;SDS011;27609;51.002;5.354;2023-06-22T10:14:15;30.10;;;24.23;;
41921;SDS011;27609;51.002;5.354;2023-06-22T10:16:42;29.42;;;25.15;;
41921;SDS011;27609;51.002;5.354;2023-06-22T10:19:07;28.83;;;23.98;;
41921;SDS011;27609;51.002;5.354;2023-06-22T10:21:33;29.95;;;26.08;;
41921;SDS011;27609;51.002;5.354;2023-06-22T10:23:59;30.35;;;25.85;;
41921;SDS011;27609;51.002;5.354;2023-06-22T10:26:31;32.83;;;26.45;;
41921;SDS011;27609;51.002;5.354;2023-06-22T10:28:57;44.92;;;29.42;;
41921;SDS011;27609;51.002;5.354;2023-06-22T10:31:23;43.28;;;32.25;;
41921;SDS011;27609;51.002;5.354;2023-06-22T10:33:48;46.08;;;34.70;;
41921;SDS011;27609;51.002;5.354;2023-06-22T10:36:14;45.42;;;35.38;;
41921;SDS011;27609;51.002;5.354;2023-06-22T10:38:40;49.88;;;36.17;;
41921;SDS011;27609;51.002;5.354;2023-06-22T10:41:06;57.90;;;37.90;;
41921;SDS011;27609;51.002;5.354;2023-06-22T10:43:31;55.58;;;38.58;;
41921;SDS011;27609;51.002;5.354;2023-06-22T10:45:57;51.67;;;37.00;;
41921;SDS011;27609;51.002;5.354;2023-06-22T10:48:23;51.45;;;37.38;;
41921;SDS011;27609;51.002;5.354;2023-06-22T10:50:48;53.35;;;38.78;;
41921;SDS011;27609;51.002;5.354;2023-06-22T10:53:14;54.28;;;39.33;;
41921;SDS011;27609;51.002;5.354;2023-06-22T10:55:40;48.60;;;37.40;;
41921;SDS011;27609;51.002;5.354;2023-06-22T10:58:05;47.95;;;39.42;;
41921;SDS011;27609;51.002;5.354;2023-06-22T11:00:31;47.30;;;37.22;;
41921;SDS011;27609;51.002;5.354;2023-06-22T11:02:57;46.20;;;37.72;;
41921;SDS011;27609;51.002;5.354;2023-06-22T11:05:23;47.17;;;36.53;;
41921;SDS011;27609;51.002;5.354;2023-06-22T11:07:49;45.03;;;35.38;;
41921;SDS011;27609;51.002;5.354;2023-06-22T11:10:15;45.90;;;36.92;;
41921;SDS011;27609;51.002;5.354;2023-06-22T11:12:41;43.80;;;35.65;;
41921;SDS011;27609;51.002;5.354;2023-06-22T11:15:08;48.20;;;36.75;;
41921;SDS011;27609;51.002;5.354;2023-06-22T11:17:34;48.35;;;36.05;;
41921;SDS011;27609;51.002;5.354;2023-06-22T11:20:00;42.25;;;34.70;;
41921;SDS011;27609;51.002;5.354;2023-06-22T11:22:26;38.15;;;33.45;;
41921;SDS011;27609;51.002;5.354;2023-06-22T11:24:52;37.55;;;32.08;;
41921;SDS011;27609;51.002;5.354;2023-06-22T11:27:17;40.70;;;31.67;;
41921;SDS011;27609;51.002;5.354;2023-06-22T11:29:43;33.58;;;29.60;;
41921;SDS011;27609;51.002;5.354;2023-06-22T11:32:09;32.60;;;29.10;;
41921;SDS011;27609;51.002;5.354;2023-06-22T11:34:35;31.88;;;27.00;;
41921;SDS011;27609;51.002;5.354;2023-06-22T11:37:00;32.00;;;26.17;;
41921;SDS011;27609;51.002;5.354;2023-06-22T11:39:26;28.05;;;25.02;;
41921;SDS011;27609;51.002;5.354;2023-06-22T11:41:52;28.27;;;25.17;;
41921;SDS011;27609;51.002;5.354;2023-06-22T11:44:17;28.30;;;25.20;;
41921;SDS011;27609;51.002;5.354;2023-06-22T11:46:43;29.05;;;23.52;;
41921;SDS011;27609;51.002;5.354;2023-06-22T11:49:09;25.73;;;23.13;;
41921;SDS011;27609;51.002;5.354;2023-06-22T11:51:35;27.73;;;24.80;;
41921;SDS011;27609;51.002;5.354;2023-06-22T11:54:00;29.30;;;25.50;;
41921;SDS011;27609;51.002;5.354;2023-06-22T11:56:27;27.50;;;24.63;;
41921;SDS011;27609;51.002;5.354;2023-06-22T11:58:53;38.47;;;29.08;;
41921;SDS011;27609;51.002;5.354;2023-06-22T12:01:19;30.02;;;26.63;;
41921;SDS011;27609;51.002;5.354;2023-06-22T12:03:45;31.00;;;27.20;;
41921;SDS011;27609;51.002;5.354;2023-06-22T12:06:11;32.22;;;27.98;;
41921;SDS011;27609;51.002;5.354;2023-06-22T12:08:37;35.28;;;29.05;;
41921;SDS011;27609;51.002;5.354;2023-06-22T12:11:02;35.30;;;30.58;;
41921;SDS011;27609;51.002;5.354;2023-06-22T12:13:28;36.63;;;31.55;;
41921;SDS011;27609;51.002;5.354;2023-06-22T12:15:54;38.50;;;33.13;;
41921;SDS011;27609;51.002;5.354;2023-06-22T12:18:19;40.70;;;32.85;;
41921;SDS011;27609;51.002;5.354;2023-06-22T12:20:47;40.42;;;32.92;;
41921;SDS011;27609;51.002;5.354;2023-06-22T12:23:14;39.40;;;33.33;;
41921;SDS011;27609;51.002;5.354;2023-06-22T12:25:40;41.47;;;35.50;;
41921;SDS011;27609;51.002;5.354;2023-06-22T12:28:05;39.15;;;34.15;;
41921;SDS011;27609;51.002;5.354;2023-06-22T12:30:32;44.13;;;36.50;;
41921;SDS011;27609;51.002;5.354;2023-06-22T12:32:58;41.88;;;36.42;;
41921;SDS011;27609;51.002;5.354;2023-06-22T12:35:24;44.17;;;36.15;;
41921;SDS011;27609;51.002;5.354;2023-06-22T12:37:49;41.90;;;35.28;;
41921;SDS011;27609;51.002;5.354;2023-06-22T12:40:15;40.53;;;34.90;;
41921;SDS011;27609;51.002;5.354;2023-06-22T12:42:41;39.78;;;34.67;;
41921;SDS011;27609;51.002;5.354;2023-06-22T12:45:07;46.88;;;36.47;;
41921;SDS011;27609;51.002;5.354;2023-06-22T12:47:33;42.58;;;36.80;;
41921;SDS011;27609;51.002;5.354;2023-06-22T12:49:59;43.90;;;37.03;;
41921;SDS011;27609;51.002;5.354;2023-06-22T12:52:25;45.70;;;37.88;;
41921;SDS011;27609;51.002;5.354;2023-06-22T12:54:50;42.83;;;36.35;;
41921;SDS011;27609;51.002;5.354;2023-06-22T12:57:17;44.10;;;37.28;;
41921;SDS011;27609;51.002;5.354;2023-06-22T12:59:44;44.63;;;34.03;;
41921;SDS011;27609;51.002;5.354;2023-06-22T13:02:10;39.55;;;34.33;;
41921;SDS011;27609;51.002;5.354;2023-06-22T13:04:36;49.88;;;36.20;;
41921;SDS011;27609;51.002;5.354;2023-06-22T13:07:01;40.30;;;32.78;;
41921;SDS011;27609;51.002;5.354;2023-06-22T13:09:27;41.30;;;32.55;;
41921;SDS011;27609;51.002;5.354;2023-06-22T13:11:53;38.13;;;31.65;;
41921;SDS011;27609;51.002;5.354;2023-06-22T13:14:18;36.88;;;31.52;;
41921;SDS011;27609;51.002;5.354;2023-06-22T13:16:44;40.58;;;32.30;;
41921;SDS011;27609;51.002;5.354;2023-06-22T13:19:10;36.47;;;30.70;;
41921;SDS011;27609;51.002;5.354;2023-06-22T13:21:36;34.80;;;29.08;;
41921;SDS011;27609;51.002;5.354;2023-06-22T13:24:01;44.15;;;30.20;;
41921;SDS011;27609;51.002;5.354;2023-06-22T13:26:27;44.47;;;32.05;;
41921;SDS011;27609;51.002;5.354;2023-06-22T13:28:53;42.38;;;30.13;;
41921;SDS011;27609;51.002;5.354;2023-06-22T13:31:19;36.08;;;28.75;;
41921;SDS011;27609;51.002;5.354;2023-06-22T13:33:45;36.67;;;29.23;;
41921;SDS011;27609;51.002;5.354;2023-06-22T13:36:13;38.60;;;29.08;;
41921;SDS011;27609;51.002;5.354;2023-06-22T13:38:38;35.17;;;28.58;;
41921;SDS011;27609;51.002;5.354;2023-06-22T13:41:04;36.13;;;29.88;;
41921;SDS011;27609;51.002;5.354;2023-06-22T13:43:31;40.58;;;30.55;;
41921;SDS011;27609;51.002;5.354;2023-06-22T13:45:57;38.97;;;29.35;;
41921;SDS011;27609;51.002;5.354;2023-06-22T13:48:23;41.88;;;31.85;;
41921;SDS011;27609;51.002;5.354;2023-06-22T13:50:50;39.00;;;32.65;;
41921;SDS011;27609;51.002;5.354;2023-06-22T13:53:16;42.63;;;33.63;;
41921;SDS011;27609;51.002;5.354;2023-06-22T13:55:42;43.75;;;33.55;;
41921;SDS011;27609;51.002;5.354;2023-06-22T13:58:08;50.25;;;34.55;;
41921;SDS011;27609;51.002;5.354;2023-06-22T14:00:34;43.95;;;35.80;;
41921;SDS011;27609;51.002;5.354;2023-06-22T14:02:59;48.88;;;37.50;;
41921;SDS011;27609;51.002;5.354;2023-06-22T14:05:25;48.72;;;39.25;;
41921;SDS011;27609;51.002;5.354;2023-06-22T14:07:51;50.00;;;39.70;;
41921;SDS011;27609;51.002;5.354;2023-06-22T14:10:17;49.85;;;38.13;;
41921;SDS011;27609;51.002;5.354;2023-06-22T14:12:42;51.13;;;38.50;;
41921;SDS011;27609;51.002;5.354;2023-06-22T14:15:08;50.65;;;38.33;;
41921;SDS011;27609;51.002;5.354;2023-06-22T14:17:34;49.03;;;38.30;;
41921;SDS011;27609;51.002;5.354;2023-06-22T14:19:59;51.20;;;39.65;;
41921;SDS011;27609;51.002;5.354;2023-06-22T14:22:25;51.83;;;38.22;;
41921;SDS011;27609;51.002;5.354;2023-06-22T14:24:54;52.83;;;39.72;;
41921;SDS011;27609;51.002;5.354;2023-06-22T14:27:21;45.83;;;37.05;;